Time;durP1;ratioP1;P1;durP2;ratioP2;P2;SDS_P1;SDS_P2;PMS_P1;PMS_P2;Temp;Humidity;BMP_temperature;BMP_pressure;BME280_temperature;BME280_humidity;BME280_pressure;Samples;Min_cycle;Max_cycle;Signal;HPM_P1;HPM_P2
2023/03/17 00:02:44;;;;;;;1.50;1.25;;;;;;;;;;10363060;28;20269;-75
2023/03/17 00:07:46;;;;;;;1.70;1.60;;;;;;;;;;10368454;28;20254;-75
2023/03/17 00:12:48;;;;;;;1.58;1.48;;;;;;;;;;10355638;28;20231;-76
2023/03/17 00:17:49;;;;;;;2.88;1.85;;;;;;;;;;10362403;28;20230;-75
2023/03/17 00:22:51;;;;;;;6.13;1.63;;;;;;;;;;10356694;28;20928;-74
2023/03/17 00:27:52;;;;;;;1.65;1.55;;;;;;;;;;10374913;28;20222;-75
2023/03/17 00:32:55;;;;;;;4.45;1.98;;;;;;;;;;10350703;28;20314;-75
2023/03/17 00:37:57;;;;;;;3.08;1.45;;;;;;;;;;10339277;28;20220;-76
2023/03/17 00:42:59;;;;;;;1.70;1.65;;;;;;;;;;10373917;28;20303;-75
2023/03/17 00:48:00;;;;;;;2.33;1.25;;;;;;;;;;10347139;28;20223;-77
2023/03/17 00:53:02;;;;;;;2.60;1.98;;;;;;;;;;10358531;28;20220;-75
2023/03/17 00:58:11;;;;;;;3.03;2.25;;;;;;;;;;10359926;28;20226;-76
2023/03/17 01:03:13;;;;;;;1.67;1.00;;;;;;;;;;10354096;28;20227;-76
2023/03/17 01:08:15;;;;;;;1.27;1.20;;;;;;;;;;10340876;28;20604;-76
2023/03/17 01:13:16;;;;;;;1.80;1.70;;;;;;;;;;10368449;28;20232;-76
2023/03/17 01:18:19;;;;;;;2.35;1.27;;;;;;;;;;10349443;28;20648;-76
2023/03/17 01:23:20;;;;;;;1.52;1.52;;;;;;;;;;10374614;28;20271;-74
2023/03/17 01:28:22;;;;;;;3.33;1.65;;;;;;;;;;10374085;28;20211;-74
2023/03/17 01:33:24;;;;;;;1.90;1.63;;;;;;;;;;10379505;28;20292;-75
2023/03/17 01:38:25;;;;;;;4.05;1.15;;;;;;;;;;10359996;28;20226;-75
2023/03/17 01:43:29;;;;;;;3.70;1.83;;;;;;;;;;10372276;28;22016;-75
2023/03/17 01:48:34;;;;;;;1.80;1.58;;;;;;;;;;10351665;28;20219;-75
2023/03/17 01:53:37;;;;;;;1.50;1.40;;;;;;;;;;10354267;28;20224;-76
2023/03/17 01:58:38;;;;;;;1.38;1.30;;;;;;;;;;10370488;28;20226;-75
2023/03/17 02:03:40;;;;;;;1.55;1.27;;;;;;;;;;10326596;28;20247;-75
2023/03/17 02:08:42;;;;;;;2.63;1.67;;;;;;;;;;10365233;28;20246;-74
2023/03/17 02:13:44;;;;;;;4.15;1.98;;;;;;;;;;10349373;28;20816;-74
2023/03/17 02:18:45;;;;;;;1.85;1.65;;;;;;;;;;10363472;28;20219;-76
2023/03/17 02:23:50;;;;;;;2.08;1.65;;;;;;;;;;10347120;28;20826;-77
2023/03/17 02:28:51;;;;;;;2.78;1.65;;;;;;;;;;10356107;28;20262;-75
2023/03/17 02:33:53;;;;;;;1.77;1.42;;;;;;;;;;10369110;28;20211;-74
2023/03/17 02:38:55;;;;;;;1.58;1.00;;;;;;;;;;10356326;28;20702;-76
2023/03/17 02:43:56;;;;;;;3.67;1.60;;;;;;;;;;10363096;28;20215;-74
2023/03/17 02:48:57;;;;;;;1.65;1.60;;;;;;;;;;10339529;28;20211;-74
2023/03/17 02:53:59;;;;;;;1.58;1.48;;;;;;;;;;10352097;28;20702;-74
2023/03/17 02:59:00;;;;;;;1.50;1.17;;;;;;;;;;10367986;28;20723;-74
2023/03/17 03:04:02;;;;;;;1.63;1.48;;;;;;;;;;10339237;28;20239;-74
2023/03/17 03:09:04;;;;;;;5.05;1.60;;;;;;;;;;10363840;28;20307;-75
2023/03/17 03:14:05;;;;;;;1.40;1.30;;;;;;;;;;10371246;28;20224;-75
2023/03/17 03:19:06;;;;;;;2.17;1.90;;;;;;;;;;10352289;28;20207;-74
2023/03/17 03:24:08;;;;;;;2.85;1.35;;;;;;;;;;10346602;28;20230;-75
2023/03/17 03:29:09;;;;;;;1.52;1.45;;;;;;;;;;10366141;28;20233;-74
2023/03/17 03:34:10;;;;;;;1.77;1.50;;;;;;;;;;10354009;28;20223;-75
2023/03/17 03:39:11;;;;;;;3.33;1.15;;;;;;;;;;10370792;28;20930;-75
2023/03/17 03:44:12;;;;;;;1.13;1.13;;;;;;;;;;10356659;28;20246;-75
2023/03/17 03:49:13;;;;;;;2.08;1.52;;;;;;;;;;10368271;28;20225;-75
2023/03/17 03:54:14;;;;;;;3.03;1.60;;;;;;;;;;10371106;28;20215;-74
2023/03/17 03:59:15;;;;;;;2.15;1.38;;;;;;;;;;10376356;28;20227;-75
2023/03/17 04:04:16;;;;;;;1.08;1.02;;;;;;;;;;10362566;28;20223;-74
2023/03/17 04:09:17;;;;;;;0.73;0.73;;;;;;;;;;10364821;28;20228;-73
2023/03/17 04:14:18;;;;;;;0.80;0.80;;;;;;;;;;10356385;28;20290;-74
2023/03/17 04:19:20;;;;;;;2.95;0.75;;;;;;;;;;10345984;28;21041;-76
2023/03/17 04:24:21;;;;;;;1.25;1.25;;;;;;;;;;10334709;28;20227;-74
2023/03/17 04:29:22;;;;;;;1.38;1.38;;;;;;;;;;10352584;28;20967;-74
2023/03/17 04:34:23;;;;;;;1.48;1.38;;;;;;;;;;10370217;28;20225;-75
2023/03/17 04:39:24;;;;;;;2.78;1.30;;;;;;;;;;10355752;28;20223;-75
2023/03/17 04:44:26;;;;;;;1.42;1.33;;;;;;;;;;10360980;28;20742;-76
2023/03/17 04:49:27;;;;;;;1.83;1.23;;;;;;;;;;10375812;28;20227;-74
2023/03/17 04:54:28;;;;;;;1.30;1.20;;;;;;;;;;10354780;28;20339;-74
2023/03/17 04:59:29;;;;;;;2.88;0.98;;;;;;;;;;10355675;28;20223;-73
2023/03/17 05:04:31;;;;;;;0.98;0.98;;;;;;;;;;10357191;28;20218;-74
2023/03/17 05:09:32;;;;;;;1.20;1.10;;;;;;;;;;10352961;28;20285;-74
2023/03/17 05:14:33;;;;;;;0.80;0.80;;;;;;;;;;10362943;28;20216;-75
2023/03/17 05:19:34;;;;;;;1.00;1.00;;;;;;;;;;10360450;28;20227;-74
2023/03/17 05:24:35;;;;;;;0.82;0.82;;;;;;;;;;10359510;28;20216;-71
2023/03/17 05:29:37;;;;;;;3.30;1.38;;;;;;;;;;10356797;28;20752;-74
2023/03/17 05:34:37;;;;;;;3.67;0.95;;;;;;;;;;10333815;28;20230;-75
2023/03/17 05:39:39;;;;;;;1.45;1.23;;;;;;;;;;10337611;28;20234;-74
2023/03/17 05:44:40;;;;;;;0.68;0.68;;;;;;;;;;10334801;28;20235;-74
2023/03/17 05:49:41;;;;;;;4.50;1.00;;;;;;;;;;10346862;28;20216;-75
2023/03/17 05:54:43;;;;;;;4.57;1.15;;;;;;;;;;10335788;28;20298;-76
2023/03/17 05:59:44;;;;;;;1.00;1.00;;;;;;;;;;10322165;28;20238;-74
2023/03/17 06:04:45;;;;;;;0.68;0.68;;;;;;;;;;10333613;28;20705;-75
2023/03/17 06:09:46;;;;;;;0.88;0.82;;;;;;;;;;10347828;28;20270;-75
2023/03/17 06:14:47;;;;;;;1.70;1.05;;;;;;;;;;10364746;28;20245;-76
2023/03/17 06:19:48;;;;;;;1.67;1.15;;;;;;;;;;10367930;28;20419;-75
2023/03/17 06:24:49;;;;;;;1.27;1.00;;;;;;;;;;10372016;28;20219;-72
2023/03/17 06:29:50;;;;;;;2.15;0.88;;;;;;;;;;10364009;28;20728;-74
2023/03/17 06:34:52;;;;;;;3.00;0.90;;;;;;;;;;10326710;28;20235;-75
2023/03/17 06:39:53;;;;;;;1.20;0.85;;;;;;;;;;10359172;28;20237;-74
2023/03/17 06:44:54;;;;;;;1.13;1.10;;;;;;;;;;10348018;28;20222;-75
2023/03/17 06:49:55;;;;;;;1.58;0.40;;;;;;;;;;10358006;28;20227;-72
2023/03/17 06:54:56;;;;;;;1.08;1.08;;;;;;;;;;10357893;28;20718;-75
2023/03/17 06:59:57;;;;;;;1.35;0.85;;;;;;;;;;10359611;28;20227;-75
2023/03/17 07:04:59;;;;;;;2.00;1.10;;;;;;;;;;10377256;28;20219;-74
2023/03/17 07:10:00;;;;;;;1.10;0.93;;;;;;;;;;10364761;28;20289;-73
2023/03/17 07:15:02;;;;;;;1.02;1.02;;;;;;;;;;10345534;28;20242;-75
2023/03/17 07:20:03;;;;;;;2.42;1.50;;;;;;;;;;10356703;28;20227;-75
2023/03/17 07:25:04;;;;;;;0.95;0.93;;;;;;;;;;10327367;28;20245;-75
2023/03/17 07:30:06;;;;;;;4.55;0.88;;;;;;;;;;10357138;28;20223;-75
2023/03/17 07:35:07;;;;;;;1.08;0.50;;;;;;;;;;10367309;28;20198;-78
2023/03/17 07:40:09;;;;;;;5.57;1.08;;;;;;;;;;10350561;28;20215;-79
2023/03/17 07:45:11;;;;;;;1.00;1.00;;;;;;;;;;10377476;28;20184;-77
2023/03/17 07:50:13;;;;;;;2.95;0.90;;;;;;;;;;10363151;28;20279;-78
2023/03/17 07:55:14;;;;;;;1.23;0.50;;;;;;;;;;10372831;28;20215;-78
2023/03/17 08:00:16;;;;;;;1.85;0.95;;;;;;;;;;10359480;28;20304;-76
2023/03/17 08:05:17;;;;;;;1.20;0.60;;;;;;;;;;10368421;28;20934;-78
2023/03/17 08:10:18;;;;;;;0.70;0.70;;;;;;;;;;10368703;28;20239;-78
2023/03/17 08:15:20;;;;;;;2.53;0.70;;;;;;;;;;10371355;28;20275;-78
2023/03/17 08:20:21;;;;;;;0.60;0.60;;;;;;;;;;10368789;28;20208;-78
2023/03/17 08:25:23;;;;;;;1.35;1.25;;;;;;;;;;10360036;28;20234;-79
2023/03/17 08:30:24;;;;;;;4.28;0.85;;;;;;;;;;10370669;28;20658;-79
2023/03/17 08:35:26;;;;;;;3.15;1.00;;;;;;;;;;10364495;28;20223;-78
2023/03/17 08:40:27;;;;;;;0.95;0.95;;;;;;;;;;10348383;28;20235;-78
2023/03/17 08:45:28;;;;;;;2.35;1.08;;;;;;;;;;10329389;28;20246;-79
2023/03/17 08:50:29;;;;;;;2.15;1.23;;;;;;;;;;10369586;28;20234;-78
2023/03/17 08:55:30;;;;;;;1.00;1.00;;;;;;;;;;10352881;28;20242;-78
2023/03/17 09:00:31;;;;;;;2.08;1.20;;;;;;;;;;10359490;28;20308;-78
2023/03/17 09:05:32;;;;;;;0.85;0.85;;;;;;;;;;10341833;28;20210;-77
2023/03/17 09:10:33;;;;;;;1.90;1.00;;;;;;;;;;10350535;28;20840;-78
2023/03/17 09:15:34;;;;;;;1.58;0.90;;;;;;;;;;10356144;28;20285;-77
2023/03/17 09:20:36;;;;;;;1.70;1.00;;;;;;;;;;10361059;28;20223;-77
2023/03/17 09:25:37;;;;;;;2.05;1.10;;;;;;;;;;10358116;28;20234;-77
2023/03/17 09:30:42;;;;;;;0.70;0.70;;;;;;;;;;10350259;28;20242;-78
2023/03/17 09:35:43;;;;;;;1.02;1.02;;;;;;;;;;10372456;28;20219;-76
2023/03/17 09:41:02;;;;;;;1.02;1.00;;;;;;;;;;10367149;28;20321;-77
2023/03/17 09:46:26;;;;;;;0.95;0.70;;;;;;;;;;10368362;28;20241;-78
2023/03/17 09:51:28;;;;;;;2.92;0.98;;;;;;;;;;10358678;28;21318;-79
2023/03/17 09:56:31;;;;;;;1.15;1.15;;;;;;;;;;10349916;28;20364;-77
2023/03/17 10:01:32;;;;;;;1.17;0.93;;;;;;;;;;10341550;28;20224;-77
2023/03/17 10:06:39;;;;;;;0.80;0.60;;;;;;;;;;10352337;28;20222;-78
2023/03/17 10:11:42;;;;;;;0.60;0.60;;;;;;;;;;10373388;28;20293;-79
2023/03/17 10:17:02;;;;;;;0.90;0.90;;;;;;;;;;10372487;28;20234;-76
2023/03/17 10:22:12;;;;;;;0.80;0.80;;;;;;;;;;10361640;28;20292;-78
2023/03/17 10:27:14;;;;;;;0.68;0.68;;;;;;;;;;10357298;28;20680;-77
2023/03/17 10:32:15;;;;;;;1.30;1.17;;;;;;;;;;10347703;28;20220;-77
2023/03/17 10:37:22;;;;;;;1.00;0.73;;;;;;;;;;10366733;28;20286;-78
2023/03/17 10:42:23;;;;;;;0.80;0.80;;;;;;;;;;10365285;28;20220;-78
2023/03/17 10:47:36;;;;;;;0.85;0.85;;;;;;;;;;10353279;28;20249;-78
2023/03/17 10:52:39;;;;;;;0.80;0.80;;;;;;;;;;10345116;28;20231;-77
2023/03/17 10:57:49;;;;;;;0.80;0.80;;;;;;;;;;10368459;28;20231;-77
2023/03/17 11:02:59;;;;;;;1.45;1.00;;;;;;;;;;10371348;28;20226;-77
2023/03/17 11:08:14;;;;;;;2.85;1.15;;;;;;;;;;10362470;28;20319;-77
2023/03/17 11:13:16;;;;;;;0.80;0.80;;;;;;;;;;10346394;28;20269;-77
2023/03/17 11:18:37;;;;;;;1.85;0.88;;;;;;;;;;10345751;28;20346;-78
2023/03/17 11:23:47;;;;;;;1.33;1.33;;;;;;;;;;10355524;28;21129;-77
2023/03/17 11:29:07;;;;;;;0.85;0.85;;;;;;;;;;10365846;28;20226;-77
2023/03/17 11:34:13;;;;;;;1.73;0.90;;;;;;;;;;10321066;28;20228;-78
2023/03/17 11:39:30;;;;;;;3.97;1.33;;;;;;;;;;10350699;28;20928;-78
2023/03/17 11:44:40;;;;;;;1.02;1.02;;;;;;;;;;10353772;28;20370;-78
2023/03/17 11:49:43;;;;;;;1.25;0.88;;;;;;;;;;10374168;28;20595;-77
2023/03/17 11:54:54;;;;;;;1.25;1.15;;;;;;;;;;10349832;28;20221;-76
2023/03/17 11:59:58;;;;;;;1.83;1.23;;;;;;;;;;10350007;28;20232;-78
2023/03/17 12:05:01;;;;;;;0.95;0.73;;;;;;;;;;10368677;28;20215;-78
2023/03/17 12:10:21;;;;;;;1.30;0.90;;;;;;;;;;10355060;28;20712;-77
2023/03/17 12:15:30;;;;;;;0.88;0.88;;;;;;;;;;10341824;28;20239;-77
2023/03/17 12:20:37;;;;;;;0.80;0.80;;;;;;;;;;10336750;28;20707;-77
2023/03/17 12:25:39;;;;;;;0.70;0.70;;;;;;;;;;10362643;28;20223;-76
2023/03/17 12:30:55;;;;;;;1.38;1.00;;;;;;;;;;10360949;28;20251;-78
2023/03/17 12:35:58;;;;;;;1.38;0.82;;;;;;;;;;10345879;28;20285;-77
2023/03/17 12:41:09;;;;;;;1.40;0.80;;;;;;;;;;10369840;28;20315;-78
2023/03/17 12:46:29;;;;;;;2.00;0.88;;;;;;;;;;10359065;28;20289;-76
2023/03/17 12:51:39;;;;;;;2.65;1.00;;;;;;;;;;10332599;28;20230;-78
2023/03/17 12:56:44;;;;;;;1.52;1.00;;;;;;;;;;10364232;28;20220;-77
2023/03/17 13:01:52;;;;;;;1.17;1.08;;;;;;;;;;10362822;28;20728;-78
2023/03/17 13:07:16;;;;;;;0.77;0.70;;;;;;;;;;10350751;28;20812;-77
2023/03/17 13:12:43;;;;;;;2.15;1.00;;;;;;;;;;10344603;28;20319;-78
2023/03/17 13:17:44;;;;;;;2.50;1.00;;;;;;;;;;10329298;28;20584;-78
2023/03/17 13:23:00;;;;;;;0.60;0.60;;;;;;;;;;10338406;28;20223;-79
2023/03/17 13:28:14;;;;;;;1.42;1.00;;;;;;;;;;10346612;28;20219;-79
2023/03/17 13:33:22;;;;;;;1.02;1.02;;;;;;;;;;10333774;28;20282;-78
2023/03/17 13:38:42;;;;;;;1.15;0.70;;;;;;;;;;10340657;28;20227;-79
2023/03/17 13:44:07;;;;;;;0.77;0.77;;;;;;;;;;10357946;28;20528;-79
2023/03/17 13:49:15;;;;;;;1.00;0.93;;;;;;;;;;10340083;28;20245;-78
2023/03/17 13:54:25;;;;;;;0.80;0.68;;;;;;;;;;10328823;28;20220;-80
2023/03/17 13:59:38;;;;;;;0.80;0.80;;;;;;;;;;10362318;28;20224;-79
2023/03/17 14:04:45;;;;;;;0.90;0.90;;;;;;;;;;10346512;28;20848;-80
2023/03/17 14:09:47;;;;;;;1.25;0.70;;;;;;;;;;10348654;28;20215;-79
2023/03/17 14:14:50;;;;;;;1.33;0.80;;;;;;;;;;10340013;28;20733;-79
2023/03/17 14:20:10;;;;;;;0.70;0.70;;;;;;;;;;10366010;28;20220;-79
2023/03/17 14:25:15;;;;;;;0.70;0.70;;;;;;;;;;10363529;28;20270;-79
2023/03/17 14:30:23;;;;;;;0.98;0.57;;;;;;;;;;10366060;28;20222;-79
2023/03/17 14:35:28;;;;;;;1.55;1.08;;;;;;;;;;10368450;28;20303;-79
2023/03/17 14:40:35;;;;;;;1.95;0.75;;;;;;;;;;10371640;28;20211;-79
2023/03/17 14:45:58;;;;;;;0.60;0.60;;;;;;;;;;10376118;28;20305;-78
2023/03/17 14:51:04;;;;;;;1.65;0.88;;;;;;;;;;10376548;28;20315;-80
2023/03/17 14:56:05;;;;;;;1.33;0.50;;;;;;;;;;10374659;28;20302;-78
2023/03/17 15:01:21;;;;;;;0.95;0.80;;;;;;;;;;10346514;28;20326;-79
2023/03/17 15:06:26;;;;;;;2.38;0.80;;;;;;;;;;10358604;28;20800;-79
2023/03/17 15:11:38;;;;;;;0.82;0.80;;;;;;;;;;10360635;28;21020;-78
2023/03/17 15:16:40;;;;;;;1.17;0.98;;;;;;;;;;10364144;28;20609;-77
2023/03/17 15:21:42;;;;;;;1.13;0.80;;;;;;;;;;10347146;28;20227;-78
2023/03/17 15:26:43;;;;;;;0.82;0.70;;;;;;;;;;10359599;28;20230;-77
2023/03/17 15:31:44;;;;;;;2.83;0.88;;;;;;;;;;10362084;28;20702;-78
2023/03/17 15:36:46;;;;;;;1.02;0.73;;;;;;;;;;10369388;28;20940;-79
2023/03/17 15:41:47;;;;;;;2.40;0.95;;;;;;;;;;10360313;28;20258;-78
2023/03/17 15:46:48;;;;;;;0.88;0.88;;;;;;;;;;10344367;28;20623;-78
2023/03/17 15:51:49;;;;;;;0.70;0.70;;;;;;;;;;10349737;28;20227;-77
2023/03/17 15:56:50;;;;;;;0.50;0.50;;;;;;;;;;10339777;28;20273;-77
2023/03/17 16:01:51;;;;;;;0.73;0.73;;;;;;;;;;10283520;23;20320;-77
2023/03/17 16:06:54;;;;;;;2.38;0.80;;;;;;;;;;10255518;28;20311;-76
2023/03/17 16:11:55;;;;;;;0.77;0.70;;;;;;;;;;10260479;28;20989;-78
2023/03/17 16:16:56;;;;;;;3.08;0.68;;;;;;;;;;10275246;28;23072;-77
2023/03/17 16:21:57;;;;;;;0.80;0.65;;;;;;;;;;10259168;28;20221;-76
2023/03/17 16:26:58;;;;;;;0.75;0.75;;;;;;;;;;10281901;28;20217;-77
2023/03/17 16:31:59;;;;;;;2.20;0.90;;;;;;;;;;10249605;28;20237;-76
2023/03/17 16:37:01;;;;;;;0.70;0.70;;;;;;;;;;10286832;28;20698;-77
2023/03/17 16:42:03;;;;;;;1.33;0.68;;;;;;;;;;10271518;28;20217;-76
2023/03/17 16:47:04;;;;;;;0.77;0.70;;;;;;;;;;10256145;28;20224;-78
2023/03/17 16:52:05;;;;;;;1.02;0.90;;;;;;;;;;10276854;28;20237;-77
2023/03/17 16:57:09;;;;;;;3.45;0.82;;;;;;;;;;10251121;28;20227;-77
2023/03/17 17:02:14;;;;;;;0.82;0.80;;;;;;;;;;10264791;28;20717;-78
2023/03/17 17:07:15;;;;;;;0.70;0.60;;;;;;;;;;10252259;28;20692;-75
2023/03/17 17:12:16;;;;;;;0.70;0.70;;;;;;;;;;10272273;28;20240;-78
2023/03/17 17:17:17;;;;;;;1.60;1.17;;;;;;;;;;10278206;28;20221;-76
2023/03/17 17:22:18;;;;;;;0.95;0.93;;;;;;;;;;10268719;28;20232;-76
2023/03/17 17:27:19;;;;;;;1.33;0.85;;;;;;;;;;10285294;28;20227;-76
2023/03/17 17:32:22;;;;;;;2.20;1.08;;;;;;;;;;10265030;28;20335;-76
2023/03/17 17:37:23;;;;;;;1.20;1.20;;;;;;;;;;10264219;28;20264;-77
2023/03/17 17:42:25;;;;;;;1.85;1.48;;;;;;;;;;10302505;28;20228;-76
2023/03/17 17:47:26;;;;;;;2.63;1.40;;;;;;;;;;10306560;28;20596;-76
2023/03/17 17:52:27;;;;;;;2.03;1.40;;;;;;;;;;10275236;28;20310;-78
2023/03/17 17:57:28;;;;;;;2.22;1.70;;;;;;;;;;10307816;28;20217;-76
2023/03/17 18:02:29;;;;;;;1.40;1.30;;;;;;;;;;10302258;28;20227;-75
2023/03/17 18:07:31;;;;;;;4.43;2.30;;;;;;;;;;10314437;28;20311;-76
2023/03/17 18:12:32;;;;;;;2.30;2.20;;;;;;;;;;10313878;28;20255;-77
2023/03/17 18:17:34;;;;;;;2.13;1.52;;;;;;;;;;10309031;28;20248;-77
2023/03/17 18:22:34;;;;;;;1.60;1.50;;;;;;;;;;10327535;28;20224;-75
2023/03/17 18:27:36;;;;;;;1.75;1.65;;;;;;;;;;10310903;28;20220;-77
2023/03/17 18:32:38;;;;;;;1.65;1.55;;;;;;;;;;10326293;28;20227;-76
2023/03/17 18:37:39;;;;;;;3.55;1.83;;;;;;;;;;10319043;28;20303;-77
2023/03/17 18:42:40;;;;;;;3.35;1.92;;;;;;;;;;10327104;28;20286;-77
2023/03/17 18:47:41;;;;;;;3.35;2.08;;;;;;;;;;10313434;28;20596;-77
2023/03/17 18:52:43;;;;;;;2.05;1.80;;;;;;;;;;10307293;28;20239;-76
2023/03/17 18:57:45;;;;;;;1.92;1.70;;;;;;;;;;10308222;28;20300;-75
2023/03/17 19:02:46;;;;;;;1.60;1.40;;;;;;;;;;10298695;28;20612;-78
2023/03/17 19:07:47;;;;;;;1.80;1.30;;;;;;;;;;10306699;28;20944;-77
2023/03/17 19:12:49;;;;;;;2.60;1.30;;;;;;;;;;10324468;28;20667;-77
2023/03/17 19:17:50;;;;;;;1.20;1.20;;;;;;;;;;10288524;28;20219;-78
2023/03/17 19:22:52;;;;;;;1.60;1.05;;;;;;;;;;10302383;28;20278;-76
2023/03/17 19:27:53;;;;;;;1.55;1.45;;;;;;;;;;10304422;28;20341;-77
2023/03/17 19:32:54;;;;;;;1.60;1.50;;;;;;;;;;10302159;28;20298;-77
2023/03/17 19:37:55;;;;;;;11.32;1.85;;;;;;;;;;10288326;28;20784;-77
2023/03/17 19:42:56;;;;;;;1.50;1.40;;;;;;;;;;10307554;28;20295;-78
2023/03/17 19:47:57;;;;;;;1.83;1.67;;;;;;;;;;10306800;28;20277;-78
2023/03/17 19:52:58;;;;;;;1.48;1.38;;;;;;;;;;10317959;28;20235;-77
2023/03/17 19:57:59;;;;;;;1.63;1.38;;;;;;;;;;10287578;28;20216;-76
2023/03/17 20:03:00;;;;;;;1.60;1.60;;;;;;;;;;10287621;28;20232;-76
2023/03/17 20:08:01;;;;;;;2.60;1.70;;;;;;;;;;10313681;28;20304;-77
2023/03/17 20:13:02;;;;;;;2.03;1.50;;;;;;;;;;10315103;28;20899;-75
2023/03/17 20:18:03;;;;;;;2.42;1.83;;;;;;;;;;10311039;28;20726;-76
2023/03/17 20:23:04;;;;;;;2.15;1.88;;;;;;;;;;10300858;28;20228;-76
2023/03/17 20:28:05;;;;;;;2.67;1.77;;;;;;;;;;10303614;28;20251;-76
2023/03/17 20:33:08;;;;;;;4.10;2.35;;;;;;;;;;10296909;28;20228;-76
2023/03/17 20:38:12;;;;;;;2.83;2.10;;;;;;;;;;10316687;28;20216;-76
2023/03/17 20:43:13;;;;;;;6.82;1.92;;;;;;;;;;10310206;28;20315;-78
2023/03/17 20:48:14;;;;;;;4.93;2.50;;;;;;;;;;10283336;28;20946;-77
2023/03/17 20:53:16;;;;;;;2.33;2.05;;;;;;;;;;10286845;28;20313;-76
2023/03/17 20:58:18;;;;;;;2.67;2.45;;;;;;;;;;10306853;28;22369;-77
2023/03/17 21:03:19;;;;;;;2.70;2.45;;;;;;;;;;10312872;28;20232;-77
2023/03/17 21:08:20;;;;;;;2.75;2.60;;;;;;;;;;10302094;28;20829;-77
2023/03/17 21:13:21;;;;;;;3.38;3.08;;;;;;;;;;10320161;28;20832;-78
2023/03/17 21:18:22;;;;;;;2.78;2.67;;;;;;;;;;10301899;28;20216;-78
2023/03/17 21:23:24;;;;;;;2.47;2.38;;;;;;;;;;10282885;28;20247;-76
2023/03/17 21:28:25;;;;;;;2.97;2.78;;;;;;;;;;10301692;28;20257;-76
2023/03/17 21:33:26;;;;;;;4.38;2.65;;;;;;;;;;10307698;28;20224;-76
2023/03/17 21:38:28;;;;;;;6.20;3.25;;;;;;;;;;10298096;28;20219;-75
2023/03/17 21:43:29;;;;;;;2.70;2.47;;;;;;;;;;10322977;28;20228;-76
2023/03/17 21:48:30;;;;;;;3.67;3.28;;;;;;;;;;10301813;28;20228;-76
2023/03/17 21:53:32;;;;;;;2.90;2.70;;;;;;;;;;10295264;28;20734;-76
2023/03/17 21:58:33;;;;;;;4.75;2.63;;;;;;;;;;10298346;28;20771;-77
2023/03/17 22:03:35;;;;;;;2.88;2.67;;;;;;;;;;10319352;28;20303;-77
2023/03/17 22:08:36;;;;;;;2.25;2.20;;;;;;;;;;10315754;28;20249;-78
2023/03/17 22:13:37;;;;;;;2.25;2.10;;;;;;;;;;10313068;28;20290;-78
2023/03/17 22:18:38;;;;;;;3.63;2.47;;;;;;;;;;10318544;28;20227;-77
2023/03/17 22:23:40;;;;;;;3.80;2.50;;;;;;;;;;10299073;28;20306;-77
2023/03/17 22:28:43;;;;;;;9.70;2.95;;;;;;;;;;10310023;28;20223;-78
2023/03/17 22:33:44;;;;;;;5.32;2.72;;;;;;;;;;10318096;28;20311;-77
2023/03/17 22:38:46;;;;;;;7.97;2.33;;;;;;;;;;10305264;28;20227;-78
2023/03/17 22:43:47;;;;;;;6.82;2.70;;;;;;;;;;10336652;28;20998;-79
2023/03/17 22:48:48;;;;;;;2.25;2.15;;;;;;;;;;10329769;28;20216;-78
2023/03/17 22:53:50;;;;;;;2.83;2.63;;;;;;;;;;10311844;28;20236;-78
2023/03/17 22:58:51;;;;;;;4.05;3.03;;;;;;;;;;10329935;28;20216;-77
2023/03/17 23:03:53;;;;;;;5.63;2.75;;;;;;;;;;10312710;28;20282;-76
2023/03/17 23:08:54;;;;;;;3.00;2.78;;;;;;;;;;10309862;28;20221;-79
2023/03/17 23:13:56;;;;;;;3.03;2.80;;;;;;;;;;10312582;28;20274;-77
2023/03/17 23:18:57;;;;;;;2.63;2.38;;;;;;;;;;10311518;28;20228;-77
2023/03/17 23:23:59;;;;;;;3.25;3.00;;;;;;;;;;10319982;28;20224;-79
2023/03/17 23:29:00;;;;;;;3.70;3.10;;;;;;;;;;10322637;28;20223;-78
2023/03/17 23:34:02;;;;;;;3.25;3.05;;;;;;;;;;10296396;28;20755;-79
2023/03/17 23:39:03;;;;;;;5.93;3.10;;;;;;;;;;10314778;28;20219;-78
2023/03/17 23:44:05;;;;;;;3.00;2.80;;;;;;;;;;10325907;28;20328;-78
2023/03/17 23:49:06;;;;;;;3.90;3.10;;;;;;;;;;10313395;28;20282;-79
2023/03/17 23:54:08;;;;;;;5.30;3.42;;;;;;;;;;10324198;28;20403;-77
2023/03/17 23:59:09;;;;;;;5.43;3.47;;;;;;;;;;10335243;28;20578;-78
